METAR Data
IDs: Format: Raw Decoded Include TAF

Data at: 2203 UTC 24 Mar 2019

KAFW 242153Z 21011KT 10SM SCT065TCU BKN250 28/14 A2993 RMK AO2 SLP123 TCU SE T02780144
KAFW 242053Z 24009KT 10SM SCT055 SCT070 BKN250 28/15 A2995 RMK AO2 SLP129 T02830150 56022
KAFW 241953Z 21010KT 10SM SCT048 BKN060 BKN250 28/16 A2996 RMK AO2 SLP134 T02780161
KAFW 241853Z 22011G20KT 10SM SCT041 BKN250 27/16 A2999 RMK AO2 SLP143 T02720161
KAFW 241753Z 20009KT 10SM SCT032 BKN250 26/17 A3001 RMK AO2 SLP153 T02560167 10256 20150 58006
KAFW 241742Z 20013KT 10SM BKN030 BKN250 26/17 A3002 RMK AO2 T02560167
KAFW 241653Z 22013KT 10SM BKN025 BKN030 BKN250 23/16 A3003 RMK AO2 SLP161 T02330161
KAFW 241553Z 19013KT 10SM BKN015 BKN035 BKN250 21/16 A3004 RMK AO2 SLP164 T02110161
KAFW 241539Z 20017KT 10SM BKN015 BKN035 BKN250 21/16 A3004 RMK AO2 T02110161
KAFW 241453Z 19012KT 10SM FEW013 SCT035 BKN250 20/16 A3003 RMK AO2 SLP162 T02000161 51009
KAFW 241353Z 17011KT 10SM FEW035 BKN250 18/16 A3002 RMK AO2 SLP160 T01780156
KAFW 241253Z 16007KT 10SM FEW035 FEW250 16/14 A3001 RMK AO2 SLP158 T01560139
KAFW 241153Z 18007KT 10SM FEW035 16/14 A3000 RMK AO2 SLP154 70001 T01560139 10194 20156 53005
KAFW 241053Z 18008KT 10SM SCT035 17/14 A2999 RMK AO2 SLP150 T01670144
KAFW 240953Z 18010KT 10SM SCT035 17/14 A2998 RMK AO2 SLP146 T01720144
KAFW 240853Z 18010KT 10SM SCT025 BKN035 18/14 A2999 RMK AO2 SLP148 T01780144 58006
KAFW 240753Z 19012KT 10SM BKN032 19/14 A3000 RMK AO2 SLP151 T01890144
KAFW 240729Z 18013KT 10SM SCT023 BKN030 OVC035 19/14 A3000 RMK AO2 T01940144
KAFW 240653Z 19008KT 10SM OVC022 19/15 A3001 RMK AO2 SLP153 T01890150
KAFW 240612Z 17010KT 10SM OVC027 19/14 A3001 RMK AO2 T01890144
KAFW 240553Z 17010KT 10SM OVC030 19/14 A3001 RMK AO2 SLP154 T01890144 10206 20183 402220161 51007
KAFW 240453Z 18012KT 10SM SCT033 BKN075 19/14 A3000 RMK AO2 SLP153 T01890144
KAFW 240353Z 18012KT 10SM FEW034 BKN070 BKN090 19/15 A3000 RMK AO2 SLP153 T01940150
KAFW 240253Z 17010KT 10SM SCT075 BKN210 19/15 A2999 RMK AO2 SLP148 T01890150 53010
KAFW 240153Z 18016KT 10SM FEW060 BKN220 19/15 A2996 RMK AO2 SLP138 T01940150
KAFW 240053Z 17014KT 10SM FEW060 BKN230 19/15 A2996 RMK AO2 SLP139 T01940150
KAFW 232353Z 17017KT 10SM FEW025 SCT060 BKN230 21/15 A2996 RMK AO2 PK WND 17026/2337 SLP138 60000 T02060150 10222 20183 55005
KAFW 232253Z 18020KT 10SM FEW060 SCT080 BKN250 21/16 A2995 RMK AO2 PK WND 18031/2204 RAB05E14 SLP136 P0000 T02110156
KAFW 232153Z 18020G26KT 10SM SCT031 BKN060 22/15 A2996 RMK AO2 PK WND 18029/2132 SLP137 T02170150
KAFW 232106Z 18018G22KT 10SM FEW029 BKN041 OVC047 21/14 A2997 RMK AO2 T02110144
KAFW 232053Z 17017KT 10SM BKN029 OVC036 21/15 A2997 RMK AO2 SLP142 60000 T02060150 55003
KAFW 232048Z 18015KT 10SM BKN029 OVC036 21/14 A2997 RMK AO2
KAFW 232035Z 18015KT 10SM OVC030 21/15 A2997 RMK AO2 T02060150
KAFW 231953Z 18016KT 9SM BKN026 OVC033 21/14 A2998 RMK AO2 PK WND 17026/1925 RAB1854E1855 SLP145 P0000 T02060144
KAFW 231948Z 17017KT 9SM BKN026 BKN033 OVC045 21/14 A2998 RMK AO2 PK WND 17026/1925 RAB1854E1855 P0000
KAFW 231853Z 18023G29KT 10SM SCT019 BKN065 21/14 A3001 RMK AO2 PK WND 17029/1844 SLP153 T02060144
KAFW 231753Z 18018KT 9SM FEW030 OVC050 18/14 A3004 RMK AO2 RAE23 SLP165 P0001 60001 T01830144 10183 20161 58003
KAFW 231653Z 18016KT 8SM -RA FEW030 BKN043 OVC075 18/13 A3005 RMK AO2 RAB10E20B50 SLP169 P0000 T01830133
KAFW 231553Z 18015G22KT 10SM FEW035 OVC043 18/12 A3005 RMK AO2 SLP167 CB DSNT NW MOV E T01780122
KAFW 231453Z 18016KT 10SM BKN050 OVC080 17/12 A3004 RMK AO2 RAE11 SLP167 CB DSNT NE MOV NE P0000 60000 T01720117 51009
KAFW 231353Z COR 18012KT 10SM -RA BKN046 BKN060 17/11 A3004 RMK AO2 RAE1257B51 SLP168 CB DSNT N-NE MOV NE P0000 T01670106
KAFW 231253Z 17008KT 10SM -RA BKN037 OVC046 16/09 A3003 RMK AO2 LTG DSNT NW SLP163 CB DSNT NW MOV NE P0000 T01610089
KAFW 231153Z 17008KT 10SM -RA BKN045 OVC055 16/08 A3002 RMK AO2 RAB47 SLP157 P0000 60000 T01610078 10183 20161 53004
KAFW 231053Z 16010KT 10SM SCT050 BKN160 OVC250 17/08 A3000 RMK AO2 SLP149 T01670078